sensor_id;sensor_type;location;lat;lon;timestamp;P1;durP1;ratioP1;P2;durP2;ratioP2
50102;SDS011;35993;52.604;10.078;2022-09-13T00:00:20;3.85;;;2.75;;
50102;SDS011;35993;52.604;10.078;2022-09-13T00:02:45;4.63;;;2.50;;
50102;SDS011;35993;52.604;10.078;2022-09-13T00:05:11;4.25;;;2.50;;
50102;SDS011;35993;52.604;10.078;2022-09-13T00:07:36;8.05;;;2.92;;
50102;SDS011;35993;52.604;10.078;2022-09-13T00:10:02;4.95;;;2.67;;
50102;SDS011;35993;52.604;10.078;2022-09-13T00:12:28;3.15;;;2.38;;
50102;SDS011;35993;52.604;10.078;2022-09-13T00:14:54;3.75;;;2.70;;
50102;SDS011;35993;52.604;10.078;2022-09-13T00:17:19;5.35;;;2.78;;
50102;SDS011;35993;52.604;10.078;2022-09-13T00:19:45;3.55;;;2.45;;
50102;SDS011;35993;52.604;10.078;2022-09-13T00:22:12;4.80;;;2.50;;
50102;SDS011;35993;52.604;10.078;2022-09-13T00:24:39;5.10;;;2.38;;
50102;SDS011;35993;52.604;10.078;2022-09-13T00:27:06;5.05;;;2.90;;
50102;SDS011;35993;52.604;10.078;2022-09-13T00:29:33;5.40;;;2.92;;
50102;SDS011;35993;52.604;10.078;2022-09-13T00:31:59;4.60;;;2.70;;
50102;SDS011;35993;52.604;10.078;2022-09-13T00:34:26;3.28;;;2.55;;
50102;SDS011;35993;52.604;10.078;2022-09-13T00:36:52;4.57;;;2.60;;
50102;SDS011;35993;52.604;10.078;2022-09-13T00:39:17;4.40;;;2.75;;
50102;SDS011;35993;52.604;10.078;2022-09-13T00:41:45;4.28;;;2.65;;
50102;SDS011;35993;52.604;10.078;2022-09-13T00:47:19;3.92;;;2.50;;
50102;SDS011;35993;52.604;10.078;2022-09-13T00:49:50;4.05;;;2.70;;
50102;SDS011;35993;52.604;10.078;2022-09-13T00:52:20;5.07;;;2.83;;
50102;SDS011;35993;52.604;10.078;2022-09-13T00:55:00;4.13;;;2.60;;
50102;SDS011;35993;52.604;10.078;2022-09-13T00:57:34;4.50;;;3.00;;
50102;SDS011;35993;52.604;10.078;2022-09-13T01:00:08;4.70;;;2.45;;
50102;SDS011;35993;52.604;10.078;2022-09-13T01:02:57;8.15;;;2.60;;
50102;SDS011;35993;52.604;10.078;2022-09-13T01:05:37;4.13;;;2.45;;
50102;SDS011;35993;52.604;10.078;2022-09-13T01:08:10;3.15;;;2.40;;
50102;SDS011;35993;52.604;10.078;2022-09-13T01:10:41;3.28;;;2.50;;
50102;SDS011;35993;52.604;10.078;2022-09-13T01:13:10;4.53;;;2.65;;
50102;SDS011;35993;52.604;10.078;2022-09-13T01:15:42;3.58;;;2.75;;
50102;SDS011;35993;52.604;10.078;2022-09-13T01:18:09;4.43;;;2.70;;
50102;SDS011;35993;52.604;10.078;2022-09-13T01:31:58;4.40;;;3.40;;
50102;SDS011;35993;52.604;10.078;2022-09-13T01:34:29;4.47;;;2.55;;
50102;SDS011;35993;52.604;10.078;2022-09-13T01:48:22;3.70;;;2.45;;
50102;SDS011;35993;52.604;10.078;2022-09-13T02:01:45;4.00;;;2.75;;
50102;SDS011;35993;52.604;10.078;2022-09-13T02:04:20;4.68;;;2.60;;
50102;SDS011;35993;52.604;10.078;2022-09-13T02:07:10;3.80;;;2.90;;
50102;SDS011;35993;52.604;10.078;2022-09-13T02:09:39;4.65;;;2.85;;
50102;SDS011;35993;52.604;10.078;2022-09-13T02:12:14;3.45;;;2.38;;
50102;SDS011;35993;52.604;10.078;2022-09-13T02:14:45;3.97;;;2.55;;
50102;SDS011;35993;52.604;10.078;2022-09-13T02:17:22;4.47;;;2.60;;
50102;SDS011;35993;52.604;10.078;2022-09-13T02:20:00;3.70;;;2.75;;
50102;SDS011;35993;52.604;10.078;2022-09-13T02:22:33;4.15;;;2.92;;
50102;SDS011;35993;52.604;10.078;2022-09-13T02:25:05;6.35;;;2.80;;
50102;SDS011;35993;52.604;10.078;2022-09-13T02:27:35;4.75;;;2.85;;
50102;SDS011;35993;52.604;10.078;2022-09-13T02:30:06;4.32;;;2.40;;
50102;SDS011;35993;52.604;10.078;2022-09-13T02:32:35;3.47;;;2.53;;
50102;SDS011;35993;52.604;10.078;2022-09-13T02:35:07;3.72;;;2.78;;
50102;SDS011;35993;52.604;10.078;2022-09-13T02:37:35;6.05;;;3.05;;
50102;SDS011;35993;52.604;10.078;2022-09-13T02:40:04;5.25;;;3.05;;
50102;SDS011;35993;52.604;10.078;2022-09-13T02:42:36;3.47;;;2.72;;
50102;SDS011;35993;52.604;10.078;2022-09-13T02:45:07;6.30;;;3.17;;
50102;SDS011;35993;52.604;10.078;2022-09-13T02:50:24;5.40;;;3.20;;
50102;SDS011;35993;52.604;10.078;2022-09-13T02:53:11;5.63;;;3.75;;
50102;SDS011;35993;52.604;10.078;2022-09-13T02:58:51;11.52;;;4.18;;
50102;SDS011;35993;52.604;10.078;2022-09-13T03:01:25;8.10;;;4.18;;
50102;SDS011;35993;52.604;10.078;2022-09-13T03:03:51;7.85;;;4.13;;
50102;SDS011;35993;52.604;10.078;2022-09-13T03:06:21;13.75;;;4.60;;
50102;SDS011;35993;52.604;10.078;2022-09-13T03:08:48;6.05;;;3.60;;
50102;SDS011;35993;52.604;10.078;2022-09-13T03:27:17;5.22;;;3.72;;
50102;SDS011;35993;52.604;10.078;2022-09-13T03:32:23;6.28;;;3.45;;
50102;SDS011;35993;52.604;10.078;2022-09-13T03:35:03;6.32;;;3.88;;
50102;SDS011;35993;52.604;10.078;2022-09-13T03:40:21;5.53;;;3.70;;
50102;SDS011;35993;52.604;10.078;2022-09-13T03:43:18;4.90;;;3.40;;
50102;SDS011;35993;52.604;10.078;2022-09-13T03:46:01;6.45;;;3.97;;
50102;SDS011;35993;52.604;10.078;2022-09-13T03:48:34;5.55;;;3.72;;
50102;SDS011;35993;52.604;10.078;2022-09-13T03:51:05;5.47;;;3.72;;
50102;SDS011;35993;52.604;10.078;2022-09-13T03:53:34;7.22;;;4.30;;
50102;SDS011;35993;52.604;10.078;2022-09-13T03:56:13;6.18;;;4.30;;
50102;SDS011;35993;52.604;10.078;2022-09-13T03:58:40;7.60;;;4.53;;
50102;SDS011;35993;52.604;10.078;2022-09-13T04:01:06;6.65;;;4.20;;
50102;SDS011;35993;52.604;10.078;2022-09-13T04:03:35;6.75;;;4.05;;
50102;SDS011;35993;52.604;10.078;2022-09-13T04:06:01;7.82;;;4.55;;
50102;SDS011;35993;52.604;10.078;2022-09-13T04:08:27;6.20;;;4.18;;
50102;SDS011;35993;52.604;10.078;2022-09-13T04:10:52;7.25;;;4.50;;
50102;SDS011;35993;52.604;10.078;2022-09-13T04:13:18;6.63;;;4.65;;
50102;SDS011;35993;52.604;10.078;2022-09-13T04:15:45;7.35;;;4.32;;
50102;SDS011;35993;52.604;10.078;2022-09-13T04:18:11;8.88;;;5.15;;
50102;SDS011;35993;52.604;10.078;2022-09-13T04:20:37;10.13;;;5.15;;
50102;SDS011;35993;52.604;10.078;2022-09-13T04:23:03;11.90;;;5.50;;
50102;SDS011;35993;52.604;10.078;2022-09-13T04:25:29;9.25;;;5.30;;
50102;SDS011;35993;52.604;10.078;2022-09-13T04:27:55;10.90;;;5.72;;
50102;SDS011;35993;52.604;10.078;2022-09-13T04:30:22;12.30;;;6.57;;
50102;SDS011;35993;52.604;10.078;2022-09-13T04:32:47;13.50;;;6.38;;
50102;SDS011;35993;52.604;10.078;2022-09-13T04:35:13;11.15;;;5.97;;
50102;SDS011;35993;52.604;10.078;2022-09-13T04:37:42;9.48;;;5.68;;
50102;SDS011;35993;52.604;10.078;2022-09-13T04:40:08;9.55;;;5.15;;
50102;SDS011;35993;52.604;10.078;2022-09-13T04:42:35;8.85;;;5.25;;
50102;SDS011;35993;52.604;10.078;2022-09-13T04:45:01;10.73;;;5.63;;
50102;SDS011;35993;52.604;10.078;2022-09-13T04:47:27;8.93;;;5.43;;
50102;SDS011;35993;52.604;10.078;2022-09-13T04:49:52;9.35;;;5.18;;
50102;SDS011;35993;52.604;10.078;2022-09-13T04:52:18;8.20;;;4.93;;
50102;SDS011;35993;52.604;10.078;2022-09-13T04:54:44;6.18;;;4.80;;
50102;SDS011;35993;52.604;10.078;2022-09-13T04:57:09;7.50;;;4.72;;
50102;SDS011;35993;52.604;10.078;2022-09-13T04:59:36;7.55;;;4.90;;
50102;SDS011;35993;52.604;10.078;2022-09-13T05:02:02;7.13;;;5.30;;
50102;SDS011;35993;52.604;10.078;2022-09-13T05:04:27;7.03;;;5.20;;
50102;SDS011;35993;52.604;10.078;2022-09-13T05:06:53;7.88;;;4.63;;
50102;SDS011;35993;52.604;10.078;2022-09-13T05:09:18;7.63;;;4.88;;
50102;SDS011;35993;52.604;10.078;2022-09-13T05:11:44;8.02;;;5.72;;
50102;SDS011;35993;52.604;10.078;2022-09-13T05:14:10;7.00;;;5.30;;
50102;SDS011;35993;52.604;10.078;2022-09-13T05:16:36;8.40;;;5.32;;
50102;SDS011;35993;52.604;10.078;2022-09-13T05:19:01;9.43;;;5.35;;
50102;SDS011;35993;52.604;10.078;2022-09-13T05:21:28;10.50;;;5.40;;
50102;SDS011;35993;52.604;10.078;2022-09-13T05:23:54;7.18;;;5.20;;
50102;SDS011;35993;52.604;10.078;2022-09-13T05:26:21;9.85;;;5.55;;
50102;SDS011;35993;52.604;10.078;2022-09-13T05:28:48;7.78;;;5.60;;
50102;SDS011;35993;52.604;10.078;2022-09-13T05:31:16;9.57;;;5.30;;
50102;SDS011;35993;52.604;10.078;2022-09-13T05:33:44;8.85;;;6.20;;
50102;SDS011;35993;52.604;10.078;2022-09-13T05:36:11;7.60;;;5.50;;
50102;SDS011;35993;52.604;10.078;2022-09-13T05:38:37;11.93;;;5.38;;
50102;SDS011;35993;52.604;10.078;2022-09-13T05:41:03;7.47;;;5.32;;
50102;SDS011;35993;52.604;10.078;2022-09-13T05:43:31;9.77;;;5.38;;
50102;SDS011;35993;52.604;10.078;2022-09-13T05:48:30;10.57;;;5.82;;
50102;SDS011;35993;52.604;10.078;2022-09-13T05:51:02;9.48;;;5.95;;
50102;SDS011;35993;52.604;10.078;2022-09-13T05:53:29;8.95;;;5.95;;
50102;SDS011;35993;52.604;10.078;2022-09-13T05:55:55;9.18;;;5.65;;
50102;SDS011;35993;52.604;10.078;2022-09-13T05:58:21;8.85;;;5.57;;
50102;SDS011;35993;52.604;10.078;2022-09-13T06:00:54;8.57;;;5.53;;
50102;SDS011;35993;52.604;10.078;2022-09-13T06:03:21;7.72;;;5.85;;
50102;SDS011;35993;52.604;10.078;2022-09-13T06:05:48;7.97;;;5.78;;
50102;SDS011;35993;52.604;10.078;2022-09-13T06:08:13;8.00;;;5.68;;
50102;SDS011;35993;52.604;10.078;2022-09-13T06:10:39;9.00;;;5.40;;
50102;SDS011;35993;52.604;10.078;2022-09-13T06:13:05;9.02;;;6.25;;
50102;SDS011;35993;52.604;10.078;2022-09-13T06:15:32;10.10;;;5.80;;
50102;SDS011;35993;52.604;10.078;2022-09-13T06:17:57;9.30;;;5.82;;
50102;SDS011;35993;52.604;10.078;2022-09-13T06:20:23;8.45;;;6.07;;
50102;SDS011;35993;52.604;10.078;2022-09-13T06:22:48;10.32;;;5.75;;
50102;SDS011;35993;52.604;10.078;2022-09-13T06:25:14;7.25;;;5.43;;
50102;SDS011;35993;52.604;10.078;2022-09-13T06:27:40;8.70;;;5.95;;
50102;SDS011;35993;52.604;10.078;2022-09-13T06:30:06;9.40;;;5.70;;
50102;SDS011;35993;52.604;10.078;2022-09-13T06:32:33;8.65;;;5.47;;
50102;SDS011;35993;52.604;10.078;2022-09-13T06:34:59;8.25;;;5.78;;
50102;SDS011;35993;52.604;10.078;2022-09-13T06:37:25;9.80;;;6.38;;
50102;SDS011;35993;52.604;10.078;2022-09-13T06:39:51;11.80;;;5.97;;
50102;SDS011;35993;52.604;10.078;2022-09-13T06:42:16;9.38;;;5.57;;
50102;SDS011;35993;52.604;10.078;2022-09-13T06:44:43;8.13;;;5.95;;
50102;SDS011;35993;52.604;10.078;2022-09-13T06:47:10;7.82;;;5.80;;
50102;SDS011;35993;52.604;10.078;2022-09-13T06:49:37;8.02;;;5.25;;
50102;SDS011;35993;52.604;10.078;2022-09-13T06:52:03;7.15;;;5.20;;
50102;SDS011;35993;52.604;10.078;2022-09-13T06:54:29;7.82;;;5.90;;
50102;SDS011;35993;52.604;10.078;2022-09-13T06:56:55;10.48;;;6.22;;
50102;SDS011;35993;52.604;10.078;2022-09-13T06:59:21;10.02;;;6.47;;
50102;SDS011;35993;52.604;10.078;2022-09-13T07:01:47;11.13;;;6.80;;
50102;SDS011;35993;52.604;10.078;2022-09-13T07:04:13;9.10;;;6.50;;
50102;SDS011;35993;52.604;10.078;2022-09-13T07:06:41;10.38;;;6.43;;
50102;SDS011;35993;52.604;10.078;2022-09-13T07:09:19;10.10;;;6.43;;
50102;SDS011;35993;52.604;10.078;2022-09-13T07:11:47;10.57;;;6.38;;
50102;SDS011;35993;52.604;10.078;2022-09-13T07:14:14;9.43;;;6.82;;
50102;SDS011;35993;52.604;10.078;2022-09-13T07:16:41;11.35;;;6.95;;
50102;SDS011;35993;52.604;10.078;2022-09-13T07:19:12;8.95;;;6.60;;
50102;SDS011;35993;52.604;10.078;2022-09-13T07:21:39;11.07;;;6.97;;
50102;SDS011;35993;52.604;10.078;2022-09-13T07:24:06;10.23;;;7.00;;
50102;SDS011;35993;52.604;10.078;2022-09-13T07:26:31;11.88;;;7.57;;
50102;SDS011;35993;52.604;10.078;2022-09-13T07:28:58;10.52;;;6.63;;
50102;SDS011;35993;52.604;10.078;2022-09-13T07:31:26;9.05;;;6.53;;
50102;SDS011;35993;52.604;10.078;2022-09-13T07:33:57;10.40;;;6.90;;
50102;SDS011;35993;52.604;10.078;2022-09-13T07:36:27;11.07;;;6.75;;
50102;SDS011;35993;52.604;10.078;2022-09-13T07:38:54;11.13;;;6.95;;
50102;SDS011;35993;52.604;10.078;2022-09-13T07:41:22;11.20;;;7.18;;
50102;SDS011;35993;52.604;10.078;2022-09-13T07:43:50;12.80;;;7.65;;
50102;SDS011;35993;52.604;10.078;2022-09-13T07:46:19;14.52;;;9.30;;
50102;SDS011;35993;52.604;10.078;2022-09-13T07:48:46;11.07;;;7.57;;
50102;SDS011;35993;52.604;10.078;2022-09-13T07:51:14;12.07;;;7.82;;
50102;SDS011;35993;52.604;10.078;2022-09-13T07:53:45;11.82;;;7.85;;
50102;SDS011;35993;52.604;10.078;2022-09-13T07:56:18;12.65;;;8.40;;
50102;SDS011;35993;52.604;10.078;2022-09-13T07:58:46;12.65;;;7.90;;
50102;SDS011;35993;52.604;10.078;2022-09-13T08:01:16;11.68;;;7.70;;
50102;SDS011;35993;52.604;10.078;2022-09-13T08:03:51;11.82;;;8.50;;
50102;SDS011;35993;52.604;10.078;2022-09-13T08:06:18;12.80;;;8.55;;
50102;SDS011;35993;52.604;10.078;2022-09-13T08:08:44;13.90;;;8.57;;
50102;SDS011;35993;52.604;10.078;2022-09-13T08:11:13;14.02;;;9.07;;
50102;SDS011;35993;52.604;10.078;2022-09-13T08:13:46;13.88;;;8.68;;
50102;SDS011;35993;52.604;10.078;2022-09-13T08:16:13;14.30;;;9.45;;
50102;SDS011;35993;52.604;10.078;2022-09-13T08:18:43;13.15;;;8.95;;
50102;SDS011;35993;52.604;10.078;2022-09-13T08:21:09;15.38;;;9.00;;
50102;SDS011;35993;52.604;10.078;2022-09-13T08:23:35;13.25;;;9.32;;
50102;SDS011;35993;52.604;10.078;2022-09-13T08:26:01;16.35;;;10.10;;
50102;SDS011;35993;52.604;10.078;2022-09-13T08:28:28;15.27;;;9.40;;
50102;SDS011;35993;52.604;10.078;2022-09-13T08:31:01;16.27;;;9.30;;
50102;SDS011;35993;52.604;10.078;2022-09-13T08:33:38;16.13;;;9.80;;
50102;SDS011;35993;52.604;10.078;2022-09-13T08:36:04;14.75;;;9.77;;
50102;SDS011;35993;52.604;10.078;2022-09-13T08:38:30;18.67;;;9.73;;
50102;SDS011;35993;52.604;10.078;2022-09-13T08:41:01;14.80;;;9.82;;
50102;SDS011;35993;52.604;10.078;2022-09-13T08:46:23;13.70;;;9.88;;
50102;SDS011;35993;52.604;10.078;2022-09-13T08:48:54;16.23;;;10.13;;
50102;SDS011;35993;52.604;10.078;2022-09-13T08:54:45;14.48;;;10.35;;
50102;SDS011;35993;52.604;10.078;2022-09-13T09:07:48;15.05;;;10.13;;
50102;SDS011;35993;52.604;10.078;2022-09-13T09:10:32;15.98;;;10.32;;
50102;SDS011;35993;52.604;10.078;2022-09-13T09:13:07;16.02;;;9.93;;
50102;SDS011;35993;52.604;10.078;2022-09-13T09:15:40;16.63;;;9.80;;
50102;SDS011;35993;52.604;10.078;2022-09-13T09:20:52;12.98;;;9.18;;
50102;SDS011;35993;52.604;10.078;2022-09-13T09:26:10;17.38;;;10.77;;
50102;SDS011;35993;52.604;10.078;2022-09-13T09:28:42;14.73;;;9.65;;
50102;SDS011;35993;52.604;10.078;2022-09-13T09:31:18;17.48;;;10.00;;
50102;SDS011;35993;52.604;10.078;2022-09-13T09:39:04;19.90;;;11.88;;
50102;SDS011;35993;52.604;10.078;2022-09-13T09:41:35;16.88;;;11.38;;
50102;SDS011;35993;52.604;10.078;2022-09-13T09:44:22;17.83;;;11.07;;
50102;SDS011;35993;52.604;10.078;2022-09-13T09:46:55;17.52;;;11.50;;
50102;SDS011;35993;52.604;10.078;2022-09-13T09:52:20;17.58;;;11.43;;
50102;SDS011;35993;52.604;10.078;2022-09-13T09:54:52;18.80;;;10.93;;
50102;SDS011;35993;52.604;10.078;2022-09-13T10:02:42;19.30;;;11.35;;
50102;SDS011;35993;52.604;10.078;2022-09-13T10:05:09;20.25;;;12.50;;
50102;SDS011;35993;52.604;10.078;2022-09-13T10:07:38;20.23;;;12.23;;
50102;SDS011;35993;52.604;10.078;2022-09-13T10:10:18;22.73;;;12.75;;
50102;SDS011;35993;52.604;10.078;2022-09-13T10:12:48;20.17;;;12.70;;
50102;SDS011;35993;52.604;10.078;2022-09-13T10:15:18;19.38;;;12.52;;
50102;SDS011;35993;52.604;10.078;2022-09-13T10:18:01;22.38;;;13.45;;
50102;SDS011;35993;52.604;10.078;2022-09-13T10:20:27;21.58;;;13.35;;
50102;SDS011;35993;52.604;10.078;2022-09-13T10:25:38;19.75;;;12.50;;
50102;SDS011;35993;52.604;10.078;2022-09-13T10:28:05;19.48;;;12.43;;
50102;SDS011;35993;52.604;10.078;2022-09-13T10:33:16;18.95;;;11.63;;
50102;SDS011;35993;52.604;10.078;2022-09-13T10:38:33;19.10;;;11.52;;
50102;SDS011;35993;52.604;10.078;2022-09-13T10:41:03;18.38;;;10.82;;
50102;SDS011;35993;52.604;10.078;2022-09-13T10:43:31;20.02;;;11.90;;
50102;SDS011;35993;52.604;10.078;2022-09-13T10:45:58;17.40;;;12.02;;
50102;SDS011;35993;52.604;10.078;2022-09-13T10:48:28;18.80;;;12.60;;
50102;SDS011;35993;52.604;10.078;2022-09-13T10:51:37;17.75;;;12.15;;
50102;SDS011;35993;52.604;10.078;2022-09-13T10:56:39;19.58;;;12.82;;
50102;SDS011;35993;52.604;10.078;2022-09-13T10:59:15;20.15;;;12.30;;
50102;SDS011;35993;52.604;10.078;2022-09-13T11:01:52;19.85;;;12.60;;
50102;SDS011;35993;52.604;10.078;2022-09-13T11:10:29;15.70;;;10.82;;
50102;SDS011;35993;52.604;10.078;2022-09-13T11:13:06;16.50;;;10.63;;
50102;SDS011;35993;52.604;10.078;2022-09-13T11:21:57;19.30;;;12.77;;
50102;SDS011;35993;52.604;10.078;2022-09-13T11:24:49;18.00;;;11.85;;
50102;SDS011;35993;52.604;10.078;2022-09-13T11:40:47;17.92;;;11.48;;
50102;SDS011;35993;52.604;10.078;2022-09-13T11:46:09;17.88;;;11.85;;
50102;SDS011;35993;52.604;10.078;2022-09-13T11:49:45;19.05;;;12.02;;
50102;SDS011;35993;52.604;10.078;2022-09-13T11:54:58;20.02;;;13.25;;
50102;SDS011;35993;52.604;10.078;2022-09-13T12:00:02;19.15;;;12.43;;
50102;SDS011;35993;52.604;10.078;2022-09-13T12:05:29;20.08;;;13.63;;
50102;SDS011;35993;52.604;10.078;2022-09-13T12:08:03;17.00;;;11.38;;
50102;SDS011;35993;52.604;10.078;2022-09-13T12:10:50;18.48;;;12.60;;
50102;SDS011;35993;52.604;10.078;2022-09-13T12:13:21;16.52;;;11.07;;
50102;SDS011;35993;52.604;10.078;2022-09-13T12:16:01;17.63;;;11.52;;
50102;SDS011;35993;52.604;10.078;2022-09-13T12:31:58;5.57;;;3.75;;
50102;SDS011;35993;52.604;10.078;2022-09-13T12:34:32;6.25;;;4.07;;
50102;SDS011;35993;52.604;10.078;2022-09-13T12:39:58;4.68;;;2.55;;
50102;SDS011;35993;52.604;10.078;2022-09-13T12:45:12;2.67;;;2.10;;
50102;SDS011;35993;52.604;10.078;2022-09-13T12:56:58;3.35;;;1.58;;
50102;SDS011;35993;52.604;10.078;2022-09-13T13:02:32;5.40;;;1.67;;
50102;SDS011;35993;52.604;10.078;2022-09-13T13:05:05;3.97;;;1.30;;
50102;SDS011;35993;52.604;10.078;2022-09-13T13:07:52;3.70;;;1.40;;
50102;SDS011;35993;52.604;10.078;2022-09-13T13:10:31;3.28;;;1.45;;
50102;SDS011;35993;52.604;10.078;2022-09-13T13:34:00;2.35;;;1.20;;
50102;SDS011;35993;52.604;10.078;2022-09-13T13:36:46;3.38;;;1.10;;
50102;SDS011;35993;52.604;10.078;2022-09-13T13:41:56;2.80;;;1.17;;
50102;SDS011;35993;52.604;10.078;2022-09-13T13:46:51;2.88;;;1.38;;
50102;SDS011;35993;52.604;10.078;2022-09-13T13:57:56;3.25;;;1.13;;
50102;SDS011;35993;52.604;10.078;2022-09-13T14:00:25;2.05;;;0.93;;
50102;SDS011;35993;52.604;10.078;2022-09-13T14:03:04;1.55;;;1.00;;
50102;SDS011;35993;52.604;10.078;2022-09-13T14:22:10;2.92;;;1.20;;
50102;SDS011;35993;52.604;10.078;2022-09-13T14:24:56;2.50;;;1.27;;
50102;SDS011;35993;52.604;10.078;2022-09-13T14:27:36;2.15;;;1.20;;
50102;SDS011;35993;52.604;10.078;2022-09-13T14:32:56;3.03;;;1.67;;
50102;SDS011;35993;52.604;10.078;2022-09-13T14:35:33;1.95;;;1.08;;
50102;SDS011;35993;52.604;10.078;2022-09-13T14:38:11;3.03;;;1.33;;
50102;SDS011;35993;52.604;10.078;2022-09-13T14:40:50;3.53;;;1.20;;
50102;SDS011;35993;52.604;10.078;2022-09-13T14:43:18;2.30;;;1.10;;
50102;SDS011;35993;52.604;10.078;2022-09-13T14:45:49;3.95;;;1.20;;
50102;SDS011;35993;52.604;10.078;2022-09-13T14:53:19;3.38;;;1.30;;
50102;SDS011;35993;52.604;10.078;2022-09-13T14:55:52;2.22;;;1.13;;
50102;SDS011;35993;52.604;10.078;2022-09-13T14:58:25;3.20;;;1.10;;
50102;SDS011;35993;52.604;10.078;2022-09-13T15:00:57;2.55;;;1.30;;
50102;SDS011;35993;52.604;10.078;2022-09-13T15:03:25;2.33;;;1.10;;
50102;SDS011;35993;52.604;10.078;2022-09-13T15:05:55;3.00;;;1.15;;
50102;SDS011;35993;52.604;10.078;2022-09-13T15:11:01;3.92;;;0.80;;
50102;SDS011;35993;52.604;10.078;2022-09-13T15:13:30;3.75;;;0.95;;
50102;SDS011;35993;52.604;10.078;2022-09-13T15:15:56;1.95;;;0.77;;
50102;SDS011;35993;52.604;10.078;2022-09-13T15:18:30;3.83;;;0.90;;
50102;SDS011;35993;52.604;10.078;2022-09-13T15:26:11;4.63;;;1.10;;
50102;SDS011;35993;52.604;10.078;2022-09-13T15:31:09;3.63;;;0.90;;
50102;SDS011;35993;52.604;10.078;2022-09-13T15:33:36;3.95;;;0.93;;
50102;SDS011;35993;52.604;10.078;2022-09-13T15:41:32;4.00;;;1.00;;
50102;SDS011;35993;52.604;10.078;2022-09-13T15:43:59;3.17;;;0.98;;
50102;SDS011;35993;52.604;10.078;2022-09-13T15:46:26;2.53;;;1.00;;
50102;SDS011;35993;52.604;10.078;2022-09-13T15:48:54;2.03;;;0.90;;
50102;SDS011;35993;52.604;10.078;2022-09-13T15:51:21;3.70;;;1.00;;
50102;SDS011;35993;52.604;10.078;2022-09-13T15:53:47;2.75;;;1.40;;
50102;SDS011;35993;52.604;10.078;2022-09-13T15:56:34;4.38;;;1.00;;
50102;SDS011;35993;52.604;10.078;2022-09-13T15:59:04;4.43;;;1.05;;
50102;SDS011;35993;52.604;10.078;2022-09-13T16:01:30;2.35;;;0.90;;
50102;SDS011;35993;52.604;10.078;2022-09-13T16:03:56;1.60;;;0.80;;
50102;SDS011;35993;52.604;10.078;2022-09-13T16:06:21;3.00;;;0.95;;
50102;SDS011;35993;52.604;10.078;2022-09-13T16:08:47;2.45;;;0.88;;
50102;SDS011;35993;52.604;10.078;2022-09-13T16:11:13;3.33;;;1.00;;
50102;SDS011;35993;52.604;10.078;2022-09-13T16:13:39;6.57;;;1.20;;
50102;SDS011;35993;52.604;10.078;2022-09-13T16:16:04;2.33;;;1.10;;
50102;SDS011;35993;52.604;10.078;2022-09-13T16:18:30;3.67;;;1.00;;
50102;SDS011;35993;52.604;10.078;2022-09-13T16:20:56;5.97;;;1.20;;
50102;SDS011;35993;52.604;10.078;2022-09-13T16:23:21;4.95;;;1.10;;
50102;SDS011;35993;52.604;10.078;2022-09-13T16:25:49;5.18;;;0.95;;
50102;SDS011;35993;52.604;10.078;2022-09-13T16:28:19;2.55;;;0.80;;
50102;SDS011;35993;52.604;10.078;2022-09-13T16:30:46;4.40;;;1.20;;
50102;SDS011;35993;52.604;10.078;2022-09-13T16:33:12;3.25;;;0.98;;
50102;SDS011;35993;52.604;10.078;2022-09-13T16:35:38;3.85;;;1.00;;
50102;SDS011;35993;52.604;10.078;2022-09-13T16:38:03;4.60;;;1.13;;
50102;SDS011;35993;52.604;10.078;2022-09-13T16:40:29;3.10;;;1.33;;
50102;SDS011;35993;52.604;10.078;2022-09-13T16:42:55;4.10;;;1.52;;
50102;SDS011;35993;52.604;10.078;2022-09-13T16:45:20;4.43;;;1.30;;
50102;SDS011;35993;52.604;10.078;2022-09-13T16:47:46;2.75;;;0.80;;
50102;SDS011;35993;52.604;10.078;2022-09-13T16:50:12;5.97;;;1.10;;
50102;SDS011;35993;52.604;10.078;2022-09-13T16:52:38;4.35;;;1.10;;
50102;SDS011;35993;52.604;10.078;2022-09-13T16:55:04;5.68;;;1.17;;
50102;SDS011;35993;52.604;10.078;2022-09-13T16:57:30;2.20;;;0.80;;
50102;SDS011;35993;52.604;10.078;2022-09-13T16:59:56;3.10;;;0.80;;
50102;SDS011;35993;52.604;10.078;2022-09-13T17:02:23;5.07;;;1.30;;
50102;SDS011;35993;52.604;10.078;2022-09-13T17:04:50;4.32;;;1.20;;
50102;SDS011;35993;52.604;10.078;2022-09-13T17:07:16;4.80;;;0.80;;
50102;SDS011;35993;52.604;10.078;2022-09-13T17:09:42;2.80;;;1.15;;
50102;SDS011;35993;52.604;10.078;2022-09-13T17:12:08;4.40;;;1.05;;
50102;SDS011;35993;52.604;10.078;2022-09-13T17:14:38;3.28;;;1.20;;
50102;SDS011;35993;52.604;10.078;2022-09-13T17:17:06;4.13;;;0.98;;
50102;SDS011;35993;52.604;10.078;2022-09-13T17:19:33;3.00;;;1.02;;
50102;SDS011;35993;52.604;10.078;2022-09-13T17:21:59;2.40;;;1.02;;
50102;SDS011;35993;52.604;10.078;2022-09-13T17:24:26;5.75;;;1.42;;
50102;SDS011;35993;52.604;10.078;2022-09-13T17:26:55;3.50;;;1.17;;
50102;SDS011;35993;52.604;10.078;2022-09-13T17:29:21;4.90;;;1.10;;
50102;SDS011;35993;52.604;10.078;2022-09-13T17:31:50;4.25;;;1.02;;
50102;SDS011;35993;52.604;10.078;2022-09-13T17:34:15;4.28;;;1.17;;
50102;SDS011;35993;52.604;10.078;2022-09-13T17:36:41;2.70;;;1.10;;
50102;SDS011;35993;52.604;10.078;2022-09-13T17:39:07;5.22;;;1.08;;
50102;SDS011;35993;52.604;10.078;2022-09-13T17:41:34;6.13;;;1.00;;
50102;SDS011;35993;52.604;10.078;2022-09-13T17:44:00;2.63;;;1.08;;
50102;SDS011;35993;52.604;10.078;2022-09-13T17:46:27;4.60;;;1.13;;
50102;SDS011;35993;52.604;10.078;2022-09-13T17:48:55;4.30;;;0.90;;
50102;SDS011;35993;52.604;10.078;2022-09-13T17:51:23;3.15;;;1.15;;
50102;SDS011;35993;52.604;10.078;2022-09-13T17:53:57;8.52;;;1.50;;
50102;SDS011;35993;52.604;10.078;2022-09-13T17:56:26;4.00;;;1.30;;
50102;SDS011;35993;52.604;10.078;2022-09-13T17:59:05;7.43;;;1.30;;
50102;SDS011;35993;52.604;10.078;2022-09-13T18:01:34;2.53;;;1.02;;
50102;SDS011;35993;52.604;10.078;2022-09-13T18:04:01;1.75;;;0.98;;
50102;SDS011;35993;52.604;10.078;2022-09-13T18:06:28;4.03;;;1.10;;
50102;SDS011;35993;52.604;10.078;2022-09-13T18:08:54;3.00;;;1.48;;
50102;SDS011;35993;52.604;10.078;2022-09-13T18:11:20;4.10;;;1.13;;
50102;SDS011;35993;52.604;10.078;2022-09-13T18:13:46;2.75;;;1.00;;
50102;SDS011;35993;52.604;10.078;2022-09-13T18:16:14;3.75;;;1.10;;
50102;SDS011;35993;52.604;10.078;2022-09-13T18:18:42;4.95;;;1.25;;
50102;SDS011;35993;52.604;10.078;2022-09-13T18:21:10;3.85;;;1.00;;
50102;SDS011;35993;52.604;10.078;2022-09-13T18:23:39;3.38;;;1.00;;
50102;SDS011;35993;52.604;10.078;2022-09-13T18:26:09;3.53;;;1.20;;
50102;SDS011;35993;52.604;10.078;2022-09-13T18:28:36;4.03;;;1.02;;
50102;SDS011;35993;52.604;10.078;2022-09-13T18:31:03;7.28;;;1.40;;
50102;SDS011;35993;52.604;10.078;2022-09-13T18:33:30;5.20;;;1.25;;
50102;SDS011;35993;52.604;10.078;2022-09-13T18:35:57;3.75;;;1.10;;
50102;SDS011;35993;52.604;10.078;2022-09-13T18:38:33;3.72;;;1.08;;
50102;SDS011;35993;52.604;10.078;2022-09-13T18:41:19;4.50;;;1.35;;
50102;SDS011;35993;52.604;10.078;2022-09-13T18:43:50;4.60;;;1.10;;
50102;SDS011;35993;52.604;10.078;2022-09-13T18:46:19;5.88;;;1.20;;
50102;SDS011;35993;52.604;10.078;2022-09-13T18:48:49;4.23;;;1.60;;
50102;SDS011;35993;52.604;10.078;2022-09-13T18:51:21;3.53;;;1.20;;
50102;SDS011;35993;52.604;10.078;2022-09-13T18:53:48;3.80;;;1.52;;
50102;SDS011;35993;52.604;10.078;2022-09-13T18:56:15;5.95;;;1.30;;
50102;SDS011;35993;52.604;10.078;2022-09-13T18:58:44;5.68;;;1.48;;